Lady Nur — 3FFE2 — position and weather

sailwx.info

Track history (hours):
 
Tides and Currents Weather Stations Pressure Air Temp Water Temp Dewpoint Dewpoint Depression Visibility Wind Speed Wind Dir Waves Ship Positions

Lady Nur

Last reported at 2017-Aug-16 22:35 UTC. Time now 2017-Aug-23 11:48 UTC.
Position N 35°58' W 005°20'.

Length 82 m; draft 3.3 m.

Type: Cargo ship. MMSI: 373237000.

Date/timePositionNaut miles runAvg speedWind from/ knotsBaromVisibWave heightAir tempDewpointWater temp
2017-Aug-16 22:35N 35°58' W 005°20'1 9.1
2017-Aug-16 22:31N 35°58' W 005°21'5 9.1
2017-Aug-16 22:00N 35°57' W 005°27'4 0.1
2017-Aug-15 02:59N 35°53' W 005°30'3 0.1
2017-Aug-13 20:41N 35°53' W 005°34'0 2.6
2017-Aug-13 20:30N 35°53' W 005°34'4 6.6
2017-Aug-13 19:53N 35°57' W 005°32'3 7.8
2017-Aug-13 19:26N 35°59' W 005°28'4 9.1
2017-Aug-13 19:00N 36°00' W 005°24'5 9.5
2017-Aug-13 18:30N 36°02' W 005°18'4 8.0
2017-Aug-13 18:00N 36°03' W 005°14'228 7.2
2017-Aug-12 10:24N 37°25' W 000°48'3 8.1
2017-Aug-12 10:00N 37°27' W 000°44'11 8.0
2017-Aug-12 08:37N 37°34' W 000°34'1 8.0
2017-Aug-12 08:30N 37°35' W 000°33'4 8.0
2017-Aug-12 08:00N 37°38' W 000°30'4 7.7
2017-Aug-12 07:30N 37°41' W 000°27'  
2017-Aug-09 17:29N 39°23' E 001°43'5 8.5
2017-Aug-09 16:51N 39°22' E 001°50'4 8.8
2017-Aug-09 16:24N 39°21' E 001°55'4 8.8
2017-Aug-09 16:00N 39°21' E 001°59'4 8.9
2017-Aug-09 15:30N 39°20' E 002°05'4 9.0
2017-Aug-09 15:00N 39°19' E 002°11'5 9.2
2017-Aug-09 14:30N 39°19' E 002°17'5 9.2
2017-Aug-09 14:00N 39°18' E 002°23'5 9.2
2017-Aug-09 13:30N 39°17' E 002°28'5 9.1
2017-Aug-09 13:00N 39°17' E 002°34'5 9.1
2017-Aug-09 12:30N 39°16' E 002°40'5 9.1
2017-Aug-09 12:00N 39°15' E 002°46'5 9.2
2017-Aug-09 11:30N 39°15' E 002°52'5 9.2
2017-Aug-09 11:00N 39°14' E 002°58'4 9.0
2017-Aug-09 10:30N 39°13' E 003°03'5 9.1
2017-Aug-09 10:00N 39°14' E 003°09'5 9.1
2017-Aug-09 09:30N 39°15' E 003°15'4 8.9
2017-Aug-09 09:00N 39°16' E 003°20'5 8.9
2017-Aug-09 08:29N 39°17' E 003°26'4 8.8
2017-Aug-09 07:59N 39°18' E 003°32'  
Track history (hours):
 
Tides and Currents Weather Stations Pressure Air Temp Water Temp Dewpoint Dewpoint Depression Visibility Wind Speed Wind Dir Waves Ship Positions

Lady Nur

Last reported at 2017-Aug-16 22:35 UTC. Time now 2017-Aug-23 11:48 UTC.
Position N 35°58' W 005°20'.

Length 82 m; draft 3.3 m.

Type: Cargo ship. MMSI: 373237000.

Date/timePositionNaut miles runAvg speedWind from/ knotsBaromVisibWave heightAir tempDewpointWater temp
2017-Aug-16 22:35N 35°58' W 005°20'1 9.1
2017-Aug-16 22:31N 35°58' W 005°21'5 9.1
2017-Aug-16 22:00N 35°57' W 005°27'4 0.1
2017-Aug-15 02:59N 35°53' W 005°30'3 0.1
2017-Aug-13 20:41N 35°53' W 005°34'0 2.6
2017-Aug-13 20:30N 35°53' W 005°34'4 6.6
2017-Aug-13 19:53N 35°57' W 005°32'3 7.8
2017-Aug-13 19:26N 35°59' W 005°28'4 9.1
2017-Aug-13 19:00N 36°00' W 005°24'5 9.5
2017-Aug-13 18:30N 36°02' W 005°18'4 8.0
2017-Aug-13 18:00N 36°03' W 005°14'228 7.2
2017-Aug-12 10:24N 37°25' W 000°48'3 8.1
2017-Aug-12 10:00N 37°27' W 000°44'11 8.0
2017-Aug-12 08:37N 37°34' W 000°34'1 8.0
2017-Aug-12 08:30N 37°35' W 000°33'4 8.0
2017-Aug-12 08:00N 37°38' W 000°30'4 7.7
2017-Aug-12 07:30N 37°41' W 000°27'  
2017-Aug-09 17:29N 39°23' E 001°43'5 8.5
2017-Aug-09 16:51N 39°22' E 001°50'4 8.8
2017-Aug-09 16:24N 39°21' E 001°55'4 8.8
2017-Aug-09 16:00N 39°21' E 001°59'4 8.9
2017-Aug-09 15:30N 39°20' E 002°05'4 9.0
2017-Aug-09 15:00N 39°19' E 002°11'5 9.2
2017-Aug-09 14:30N 39°19' E 002°17'5 9.2
2017-Aug-09 14:00N 39°18' E 002°23'5 9.2
2017-Aug-09 13:30N 39°17' E 002°28'5 9.1
2017-Aug-09 13:00N 39°17' E 002°34'5 9.1
2017-Aug-09 12:30N 39°16' E 002°40'5 9.1
2017-Aug-09 12:00N 39°15' E 002°46'5 9.2
2017-Aug-09 11:30N 39°15' E 002°52'5 9.2
2017-Aug-09 11:00N 39°14' E 002°58'4 9.0
2017-Aug-09 10:30N 39°13' E 003°03'5 9.1
2017-Aug-09 10:00N 39°14' E 003°09'5 9.1
2017-Aug-09 09:30N 39°15' E 003°15'4 8.9
2017-Aug-09 09:00N 39°16' E 003°20'5 8.9
2017-Aug-09 08:29N 39°17' E 003°26'4 8.8
2017-Aug-09 07:59N 39°18' E 003°32'  

Dump ship's entire track history